createdAt,value
2017-11-06T00:00:16.544Z,1009.95
2017-11-06T00:00:42.655Z,1009.95
2017-11-06T00:01:08.780Z,1009.97
2017-11-06T00:01:34.901Z,1009.97
2017-11-06T00:02:01.017Z,1010.01
2017-11-06T00:02:27.145Z,1009.98
2017-11-06T00:02:53.265Z,1009.99
2017-11-06T00:03:19.387Z,1010.02
2017-11-06T00:03:45.504Z,1010.01
2017-11-06T00:04:11.621Z,1009.99
2017-11-06T00:04:37.738Z,1009.96
2017-11-06T00:05:03.873Z,1009.96
2017-11-06T00:05:30.005Z,1009.97
2017-11-06T00:05:56.129Z,1009.97
2017-11-06T00:06:22.256Z,1009.99
2017-11-06T00:06:48.390Z,1010.01
2017-11-06T00:07:14.508Z,1010.02
2017-11-06T00:07:40.635Z,1010
2017-11-06T00:08:06.741Z,1010.02
2017-11-06T00:08:32.861Z,1010.11
2017-11-06T00:08:58.986Z,1010.03
2017-11-06T00:09:25.103Z,1010.02
2017-11-06T00:09:51.220Z,1010.04
2017-11-06T00:10:17.338Z,1010.11
2017-11-06T00:10:43.462Z,1010.06
2017-11-06T00:11:09.582Z,1010.09
2017-11-06T00:11:35.704Z,1010.08
2017-11-06T00:12:01.823Z,1010.1
2017-11-06T00:12:27.954Z,1010.04
2017-11-06T00:12:54.065Z,1010.04
2017-11-06T00:13:20.190Z,1010.11
2017-11-06T00:13:46.303Z,1010.04
2017-11-06T00:14:12.427Z,1010.1
2017-11-06T00:14:38.551Z,1010.04
2017-11-06T00:15:04.670Z,1010.07
2017-11-06T00:15:30.791Z,1010.08
2017-11-06T00:15:56.907Z,1010.1
2017-11-06T00:16:23.036Z,1010.1
2017-11-06T00:16:49.150Z,1010.13
2017-11-06T00:17:15.274Z,1010.07
2017-11-06T00:17:41.416Z,1010.12
2017-11-06T00:18:07.537Z,1010.13
2017-11-06T00:18:33.656Z,1010.11
2017-11-06T00:18:59.780Z,1010.15
2017-11-06T00:19:25.917Z,1010.13
2017-11-06T00:19:52.036Z,1010.12
2017-11-06T00:20:18.162Z,1010.19
2017-11-06T00:20:44.280Z,1010.18
2017-11-06T00:21:10.405Z,1010.21
2017-11-06T00:21:36.521Z,1010.21
2017-11-06T00:22:02.643Z,1010.17
2017-11-06T00:22:28.766Z,1010.17
2017-11-06T00:22:54.883Z,1010.23
2017-11-06T00:23:21.009Z,1010.24
2017-11-06T00:23:47.127Z,1010.26
2017-11-06T00:24:13.244Z,1010.27
2017-11-06T00:24:39.366Z,1010.25
2017-11-06T00:25:05.483Z,1010.26
2017-11-06T00:25:31.627Z,1010.27
2017-11-06T00:25:57.749Z,1010.31
2017-11-06T00:26:23.865Z,1010.3
2017-11-06T00:26:49.984Z,1010.29
2017-11-06T00:27:16.108Z,1010.31
2017-11-06T00:27:42.226Z,1010.32
2017-11-06T00:28:08.344Z,1010.31
2017-11-06T00:28:34.465Z,1010.36
2017-11-06T00:29:00.591Z,1010.35
2017-11-06T00:29:26.706Z,1010.37
2017-11-06T00:29:52.829Z,1010.35
2017-11-06T00:30:18.945Z,1010.38
2017-11-06T00:30:45.061Z,1010.36
2017-11-06T00:31:11.213Z,1010.38
2017-11-06T00:31:37.355Z,1010.38
2017-11-06T00:32:03.497Z,1010.36
2017-11-06T00:32:29.612Z,1010.41
2017-11-06T00:32:55.731Z,1010.4
2017-11-06T00:33:21.857Z,1010.43
2017-11-06T00:33:47.977Z,1010.42
2017-11-06T00:34:14.096Z,1010.44
2017-11-06T00:34:40.217Z,1010.42
2017-11-06T00:35:06.329Z,1010.48
2017-11-06T00:35:32.449Z,1010.47
2017-11-06T00:35:58.568Z,1010.48
2017-11-06T00:36:24.692Z,1010.48
2017-11-06T00:36:50.810Z,1010.49
2017-11-06T00:37:16.938Z,1010.51
2017-11-06T00:37:43.055Z,1010.5
2017-11-06T00:38:09.174Z,1010.49
2017-11-06T00:38:35.298Z,1010.52
2017-11-06T00:39:01.417Z,1010.52
2017-11-06T00:39:27.542Z,1010.54
2017-11-06T00:39:53.658Z,1010.53
2017-11-06T00:40:19.783Z,1010.56
2017-11-06T00:40:45.898Z,1010.54
2017-11-06T00:41:12.026Z,1010.57
2017-11-06T00:41:38.150Z,1010.55
2017-11-06T00:42:04.271Z,1010.53
2017-11-06T00:42:30.390Z,1010.53
2017-11-06T00:42:56.510Z,1010.54
2017-11-06T00:43:22.624Z,1010.55
2017-11-06T00:43:48.750Z,1010.55
2017-11-06T00:44:14.866Z,1010.58
2017-11-06T00:44:40.991Z,1010.57
2017-11-06T00:45:07.109Z,1010.58
2017-11-06T00:45:33.227Z,1010.58
2017-11-06T00:45:59.349Z,1010.6
2017-11-06T00:46:25.469Z,1010.57
2017-11-06T00:46:51.592Z,1010.59
2017-11-06T00:47:17.707Z,1010.63
2017-11-06T00:47:43.832Z,1010.6
2017-11-06T00:48:09.945Z,1010.66
2017-11-06T00:48:36.071Z,1010.68
2017-11-06T00:49:02.185Z,1010.68
2017-11-06T00:49:28.307Z,1010.64
2017-11-06T00:49:54.421Z,1010.69
2017-11-06T00:50:20.547Z,1010.74
2017-11-06T00:50:46.670Z,1010.71
2017-11-06T00:51:12.795Z,1010.76
2017-11-06T00:51:38.935Z,1010.8
2017-11-06T00:52:05.062Z,1010.79
2017-11-06T00:52:31.179Z,1010.8
2017-11-06T00:52:57.297Z,1010.78
2017-11-06T00:53:23.418Z,1010.84
2017-11-06T00:53:49.539Z,1010.8
2017-11-06T00:54:15.671Z,1010.8
2017-11-06T00:54:41.778Z,1010.79
2017-11-06T00:55:07.894Z,1010.82
2017-11-06T00:55:34.020Z,1010.85
2017-11-06T00:56:00.142Z,1010.81
2017-11-06T00:56:26.263Z,1010.84
2017-11-06T00:56:52.389Z,1010.82
2017-11-06T00:57:18.506Z,1010.81
2017-11-06T00:57:44.625Z,1010.84
2017-11-06T00:58:10.747Z,1010.85
2017-11-06T00:58:36.866Z,1010.88
2017-11-06T00:59:02.980Z,1010.86
2017-11-06T00:59:29.104Z,1010.85
2017-11-06T00:59:55.229Z,1010.86
2017-11-06T01:00:21.349Z,1010.89
2017-11-06T01:00:47.481Z,1010.85
2017-11-06T01:01:13.612Z,1010.84
2017-11-06T01:01:39.737Z,1010.85
2017-11-06T01:02:05.854Z,1010.89
2017-11-06T01:02:31.981Z,1010.88
2017-11-06T01:02:58.100Z,1010.91
2017-11-06T01:03:24.220Z,1010.88
2017-11-06T01:03:50.338Z,1010.86
2017-11-06T01:04:16.457Z,1010.9
2017-11-06T01:04:42.572Z,1010.94
2017-11-06T01:05:08.691Z,1010.92
2017-11-06T01:05:34.815Z,1010.94
2017-11-06T01:06:00.928Z,1010.91
2017-11-06T01:06:27.078Z,1010.91
2017-11-06T01:06:53.199Z,1010.92
2017-11-06T01:07:19.313Z,1010.92
2017-11-06T01:07:45.431Z,1010.92
2017-11-06T01:08:11.556Z,1010.93
2017-11-06T01:08:37.680Z,1010.94
2017-11-06T01:09:03.815Z,1010.9
2017-11-06T01:09:29.938Z,1010.89
2017-11-06T01:09:56.056Z,1010.87
2017-11-06T01:10:22.174Z,1010.86
2017-11-06T01:10:48.301Z,1010.88
2017-11-06T01:11:14.419Z,1010.89
2017-11-06T01:11:40.535Z,1010.94
2017-11-06T01:12:06.659Z,1010.88
2017-11-06T01:12:32.775Z,1010.91
2017-11-06T01:12:58.895Z,1010.89
2017-11-06T01:13:25.018Z,1010.9
2017-11-06T01:13:51.139Z,1010.89
2017-11-06T01:14:17.258Z,1010.86
2017-11-06T01:14:43.382Z,1010.89
2017-11-06T01:15:09.497Z,1010.89
2017-11-06T01:15:35.620Z,1010.89
2017-11-06T01:16:01.736Z,1010.89
2017-11-06T01:16:27.853Z,1010.9
2017-11-06T01:16:53.977Z,1010.92
2017-11-06T01:17:20.094Z,1010.93
2017-11-06T01:17:46.216Z,1010.92
2017-11-06T01:18:12.331Z,1010.9
2017-11-06T01:18:38.456Z,1010.91
2017-11-06T01:19:04.584Z,1010.93
2017-11-06T01:19:30.716Z,1010.96
2017-11-06T01:19:56.834Z,1010.97
2017-11-06T01:20:22.957Z,1010.96
2017-11-06T01:20:49.083Z,1011
2017-11-06T01:21:15.200Z,1010.95
2017-11-06T01:21:41.327Z,1010.95
2017-11-06T01:22:07.443Z,1010.95
2017-11-06T01:22:33.568Z,1010.99
2017-11-06T01:22:59.676Z,1010.99
2017-11-06T01:23:25.802Z,1010.95
2017-11-06T01:23:51.925Z,1010.99
2017-11-06T01:24:18.050Z,1011
2017-11-06T01:24:44.167Z,1010.97
2017-11-06T01:25:10.289Z,1010.99
2017-11-06T01:25:36.407Z,1010.97
2017-11-06T01:26:02.530Z,1010.96
2017-11-06T01:26:28.648Z,1010.98
2017-11-06T01:26:54.769Z,1010.96
2017-11-06T01:27:20.890Z,1010.95
2017-11-06T01:27:47.005Z,1010.96
2017-11-06T01:28:13.135Z,1010.95
2017-11-06T01:28:39.256Z,1010.98
2017-11-06T01:29:05.392Z,1010.97
2017-11-06T01:29:31.517Z,1010.97
2017-11-06T01:29:57.632Z,1010.99
2017-11-06T01:30:23.759Z,1010.97
2017-11-06T01:30:49.896Z,1010.98
2017-11-06T01:31:16.018Z,1010.97
2017-11-06T01:31:42.135Z,1011
2017-11-06T01:32:08.274Z,1010.99
2017-11-06T01:32:34.410Z,1010.98
2017-11-06T01:33:00.535Z,1010.98
2017-11-06T01:33:26.650Z,1010.96
2017-11-06T01:33:52.770Z,1010.95
2017-11-06T01:34:18.892Z,1010.95
2017-11-06T01:34:45.040Z,1011.01
2017-11-06T01:35:11.159Z,1010.97
2017-11-06T01:35:37.277Z,1010.97
2017-11-06T01:36:03.402Z,1010.98
2017-11-06T01:36:29.538Z,1010.97
2017-11-06T01:36:55.667Z,1010.99
2017-11-06T01:37:21.781Z,1011.03
2017-11-06T01:37:47.906Z,1011.01
2017-11-06T01:38:14.052Z,1011.04
2017-11-06T01:38:40.169Z,1011.03
2017-11-06T01:39:06.315Z,1011.02
2017-11-06T01:39:32.431Z,1011.03
2017-11-06T01:39:58.555Z,1011.03
2017-11-06T01:40:24.693Z,1011.03
2017-11-06T01:40:50.813Z,1011.02
2017-11-06T01:41:16.940Z,1011.04
2017-11-06T01:41:43.054Z,1011.06
2017-11-06T01:42:09.197Z,1011.01
2017-11-06T01:42:35.319Z,1011.05
2017-11-06T01:43:01.457Z,1011.05
2017-11-06T01:43:27.574Z,1011.02
2017-11-06T01:43:53.700Z,1011.05
2017-11-06T01:44:19.821Z,1011.08
2017-11-06T01:44:45.933Z,1011.03
2017-11-06T01:45:12.062Z,1011.02
2017-11-06T01:45:38.176Z,1011.06
2017-11-06T01:46:04.297Z,1011.03
2017-11-06T01:46:30.411Z,1011.04
2017-11-06T01:46:56.553Z,1011.03
2017-11-06T01:47:22.679Z,1011.02
2017-11-06T01:47:48.809Z,1011.01
2017-11-06T01:48:14.927Z,1011.04
2017-11-06T01:48:41.044Z,1011.06
2017-11-06T01:49:07.171Z,1011.08
2017-11-06T01:49:33.290Z,1011.07
2017-11-06T01:49:59.405Z,1011.05
2017-11-06T01:50:25.536Z,1011.07
2017-11-06T01:50:51.650Z,1011.08
2017-11-06T01:51:17.774Z,1011.08
2017-11-06T01:51:43.886Z,1011.13
2017-11-06T01:52:10.016Z,1011.11
2017-11-06T01:52:36.137Z,1011.12
2017-11-06T01:53:02.252Z,1011.1
2017-11-06T01:53:28.372Z,1011.13
2017-11-06T01:53:54.484Z,1011.11
2017-11-06T01:54:20.609Z,1011.08
2017-11-06T01:54:46.734Z,1011.09
2017-11-06T01:55:12.852Z,1011.06
2017-11-06T01:55:38.980Z,1011.08
2017-11-06T01:56:05.099Z,1011.11
2017-11-06T01:56:31.213Z,1011.12
2017-11-06T01:56:57.338Z,1011.12
2017-11-06T01:57:23.489Z,1011.1
2017-11-06T01:57:49.618Z,1011.12
2017-11-06T01:58:15.743Z,1011.13
2017-11-06T01:58:41.863Z,1011.15
2017-11-06T01:59:07.981Z,1011.11
2017-11-06T01:59:34.096Z,1011.16
2017-11-06T02:00:00.240Z,1011.12
2017-11-06T02:00:26.355Z,1011.1
2017-11-06T02:00:52.474Z,1011.1
2017-11-06T02:01:18.591Z,1011.1
2017-11-06T02:01:44.715Z,1011.1
2017-11-06T02:02:10.831Z,1011.09
2017-11-06T02:02:36.952Z,1011.07
2017-11-06T02:03:03.078Z,1011.1
2017-11-06T02:03:29.192Z,1011.07
2017-11-06T02:03:55.319Z,1011.07
2017-11-06T02:04:21.435Z,1011.07
2017-11-06T02:04:47.559Z,1011.07
2017-11-06T02:05:13.684Z,1011.05
2017-11-06T02:05:39.800Z,1011.08
2017-11-06T02:06:05.920Z,1011.1
2017-11-06T02:06:32.036Z,1011.1
2017-11-06T02:06:58.154Z,1011.09
2017-11-06T02:07:24.278Z,1011.12
2017-11-06T02:07:50.400Z,1011.13
2017-11-06T02:08:16.539Z,1011.11
2017-11-06T02:08:42.659Z,1011.12
2017-11-06T02:09:08.777Z,1011.12
2017-11-06T02:09:34.898Z,1011.14
2017-11-06T02:10:01.019Z,1011.15
2017-11-06T02:10:27.146Z,1011.14
2017-11-06T02:10:53.281Z,1011.16
2017-11-06T02:11:19.427Z,1011.17
2017-11-06T02:11:45.543Z,1011.16
2017-11-06T02:12:11.668Z,1011.17
2017-11-06T02:12:37.784Z,1011.12
2017-11-06T02:13:03.912Z,1011.18
2017-11-06T02:13:30.051Z,1011.18
2017-11-06T02:13:56.171Z,1011.17
2017-11-06T02:14:22.294Z,1011.2
2017-11-06T02:14:48.417Z,1011.18
2017-11-06T02:15:14.532Z,1011.22
2017-11-06T02:15:40.649Z,1011.2
2017-11-06T02:16:06.789Z,1011.2
2017-11-06T02:16:32.889Z,1011.18
2017-11-06T02:16:59.017Z,1011.25
2017-11-06T02:17:25.145Z,1011.25
2017-11-06T02:17:51.275Z,1011.22
2017-11-06T02:18:17.415Z,1011.26
2017-11-06T02:18:43.541Z,1011.26
2017-11-06T02:19:09.661Z,1011.24
2017-11-06T02:19:35.783Z,1011.24
2017-11-06T02:20:01.928Z,1011.24
2017-11-06T02:20:28.037Z,1011.24
2017-11-06T02:20:54.164Z,1011.21
2017-11-06T02:21:20.283Z,1011.26
2017-11-06T02:21:46.408Z,1011.27
2017-11-06T02:22:12.530Z,1011.26
2017-11-06T02:22:38.645Z,1011.26
2017-11-06T02:23:04.770Z,1011.29
2017-11-06T02:23:30.887Z,1011.26
2017-11-06T02:23:57.011Z,1011.33
2017-11-06T02:24:23.136Z,1011.3
2017-11-06T02:24:49.259Z,1011.3
2017-11-06T02:25:15.376Z,1011.28
2017-11-06T02:25:41.490Z,1011.32
2017-11-06T02:26:07.609Z,1011.34
2017-11-06T02:26:33.727Z,1011.34
2017-11-06T02:26:59.840Z,1011.36
2017-11-06T02:27:25.971Z,1011.37
2017-11-06T02:27:52.104Z,1011.38
2017-11-06T02:28:18.228Z,1011.37
2017-11-06T02:28:44.373Z,1011.4
2017-11-06T02:29:10.488Z,1011.4
2017-11-06T02:29:36.607Z,1011.41
2017-11-06T02:30:02.729Z,1011.43
2017-11-06T02:30:28.847Z,1011.44
2017-11-06T02:30:54.976Z,1011.42
2017-11-06T02:31:21.094Z,1011.41
2017-11-06T02:31:47.210Z,1011.41
2017-11-06T02:32:13.333Z,1011.41
2017-11-06T02:32:39.449Z,1011.42
2017-11-06T02:33:05.567Z,1011.39
2017-11-06T02:33:31.694Z,1011.38
2017-11-06T02:33:57.829Z,1011.4
2017-11-06T02:34:23.951Z,1011.41
2017-11-06T02:34:50.077Z,1011.38
2017-11-06T02:35:16.193Z,1011.39
2017-11-06T02:35:42.312Z,1011.43
2017-11-06T02:36:08.436Z,1011.42
2017-11-06T02:36:34.561Z,1011.44
2017-11-06T02:37:00.673Z,1011.4
2017-11-06T02:37:26.799Z,1011.39
2017-11-06T02:37:52.919Z,1011.41
2017-11-06T02:38:19.032Z,1011.41
2017-11-06T02:38:45.157Z,1011.41
2017-11-06T02:39:11.297Z,1011.42
2017-11-06T02:39:37.421Z,1011.41
2017-11-06T02:40:03.539Z,1011.41
2017-11-06T02:40:29.659Z,1011.41
2017-11-06T02:40:55.785Z,1011.44
2017-11-06T02:41:21.908Z,1011.39
2017-11-06T02:41:48.037Z,1011.38
2017-11-06T02:42:14.155Z,1011.42
2017-11-06T02:42:40.268Z,1011.45
2017-11-06T02:43:06.390Z,1011.45
2017-11-06T02:43:32.528Z,1011.43
2017-11-06T02:43:58.640Z,1011.4
2017-11-06T02:44:24.768Z,1011.45
2017-11-06T02:44:50.883Z,1011.43
2017-11-06T02:45:17.003Z,1011.44
2017-11-06T02:45:43.141Z,1011.47
2017-11-06T02:46:09.257Z,1011.5
2017-11-06T02:46:35.369Z,1011.46
2017-11-06T02:47:01.484Z,1011.47
2017-11-06T02:47:27.607Z,1011.49
2017-11-06T02:47:53.724Z,1011.5
2017-11-06T02:48:19.846Z,1011.48
2017-11-06T02:48:45.969Z,1011.55
2017-11-06T02:49:12.085Z,1011.51
2017-11-06T02:49:38.207Z,1011.53
2017-11-06T02:50:04.331Z,1011.54
2017-11-06T02:50:30.452Z,1011.58
2017-11-06T02:50:56.569Z,1011.53
2017-11-06T02:51:22.685Z,1011.55
2017-11-06T02:51:48.808Z,1011.54
2017-11-06T02:52:14.923Z,1011.56
2017-11-06T02:52:41.050Z,1011.56
2017-11-06T02:53:07.171Z,1011.56
2017-11-06T02:53:33.287Z,1011.52
2017-11-06T02:53:59.409Z,1011.54
2017-11-06T02:54:25.524Z,1011.57
2017-11-06T02:54:51.643Z,1011.58
2017-11-06T02:55:17.774Z,1011.52
2017-11-06T02:55:43.888Z,1011.55
2017-11-06T02:56:10.012Z,1011.54
2017-11-06T02:56:36.127Z,1011.54
2017-11-06T02:57:02.275Z,1011.56
2017-11-06T02:57:28.389Z,1011.59
2017-11-06T02:57:54.510Z,1011.56
2017-11-06T02:58:20.633Z,1011.58
2017-11-06T02:58:46.747Z,1011.62
2017-11-06T02:59:12.875Z,1011.62
2017-11-06T02:59:38.994Z,1011.6
2017-11-06T03:00:05.127Z,1011.65
2017-11-06T03:00:31.254Z,1011.63
2017-11-06T03:00:57.371Z,1011.63
2017-11-06T03:01:23.493Z,1011.63
2017-11-06T03:01:49.612Z,1011.6
2017-11-06T03:02:15.725Z,1011.63
2017-11-06T03:02:41.953Z,1011.65
2017-11-06T03:03:08.068Z,1011.64
2017-11-06T03:03:34.195Z,1011.63
2017-11-06T03:04:00.347Z,1011.64
2017-11-06T03:04:26.428Z,1011.65
2017-11-06T03:04:52.579Z,1011.63
2017-11-06T03:05:18.698Z,1011.72
2017-11-06T03:05:44.820Z,1011.69
2017-11-06T03:06:10.939Z,1011.69
2017-11-06T03:06:37.091Z,1011.69
2017-11-06T03:07:03.173Z,1011.7
2017-11-06T03:07:29.299Z,1011.67
2017-11-06T03:07:55.410Z,1011.68
2017-11-06T03:08:21.527Z,1011.71
2017-11-06T03:08:47.646Z,1011.7
2017-11-06T03:09:13.786Z,1011.68
2017-11-06T03:09:39.887Z,1011.71
2017-11-06T03:10:06.011Z,1011.74
2017-11-06T03:10:32.125Z,1011.7
2017-11-06T03:10:58.248Z,1011.7
2017-11-06T03:11:24.373Z,1011.72
2017-11-06T03:11:50.487Z,1011.71
2017-11-06T03:12:16.611Z,1011.71
2017-11-06T03:12:42.734Z,1011.7
2017-11-06T03:13:08.857Z,1011.67
2017-11-06T03:13:34.975Z,1011.67
2017-11-06T03:14:01.089Z,1011.68
2017-11-06T03:14:27.213Z,1011.69
2017-11-06T03:14:53.330Z,1011.65
2017-11-06T03:15:19.451Z,1011.65
2017-11-06T03:15:45.571Z,1011.69
2017-11-06T03:16:11.690Z,1011.68
2017-11-06T03:16:37.804Z,1011.7
2017-11-06T03:17:03.931Z,1011.7
2017-11-06T03:17:30.053Z,1011.74
2017-11-06T03:17:56.171Z,1011.7
2017-11-06T03:18:22.296Z,1011.73
2017-11-06T03:18:48.414Z,1011.72
2017-11-06T03:19:14.536Z,1011.77
2017-11-06T03:19:40.657Z,1011.73
2017-11-06T03:20:06.771Z,1011.75
2017-11-06T03:20:32.893Z,1011.78
2017-11-06T03:20:59.016Z,1011.77
2017-11-06T03:21:25.140Z,1011.79
2017-11-06T03:21:51.263Z,1011.74
2017-11-06T03:22:17.382Z,1011.77
2017-11-06T03:22:43.500Z,1011.77
2017-11-06T03:23:09.625Z,1011.81
2017-11-06T03:23:35.753Z,1011.8
2017-11-06T03:24:01.862Z,1011.83
2017-11-06T03:24:27.985Z,1011.79
2017-11-06T03:24:54.100Z,1011.77
2017-11-06T03:25:20.224Z,1011.84
2017-11-06T03:25:46.346Z,1011.79
2017-11-06T03:26:12.459Z,1011.82
2017-11-06T03:26:38.581Z,1011.82
2017-11-06T03:27:04.731Z,1011.82
2017-11-06T03:27:30.854Z,1011.87
2017-11-06T03:27:56.969Z,1011.85
2017-11-06T03:28:23.089Z,1011.91
2017-11-06T03:28:49.208Z,1011.9
2017-11-06T03:29:15.354Z,1011.86
2017-11-06T03:29:41.489Z,1011.89
2017-11-06T03:30:07.604Z,1011.87
2017-11-06T03:30:33.745Z,1011.9
2017-11-06T03:30:59.867Z,1011.92
2017-11-06T03:31:25.990Z,1011.94
2017-11-06T03:31:52.108Z,1011.92
2017-11-06T03:32:18.222Z,1011.94
2017-11-06T03:32:44.343Z,1011.95
2017-11-06T03:33:10.462Z,1011.96
2017-11-06T03:33:36.590Z,1011.95
2017-11-06T03:34:02.699Z,1012.01
2017-11-06T03:34:28.823Z,1012.01
2017-11-06T03:34:54.944Z,1012.03
2017-11-06T03:35:21.066Z,1012
2017-11-06T03:35:47.180Z,1012.07
2017-11-06T03:36:13.302Z,1012.08
2017-11-06T03:36:39.419Z,1012.06
2017-11-06T03:37:05.540Z,1012.05
2017-11-06T03:37:31.660Z,1012.07
2017-11-06T03:37:57.784Z,1012.07
2017-11-06T03:38:23.898Z,1012.04
2017-11-06T03:38:50.042Z,1012.08
2017-11-06T03:39:16.163Z,1012.1
2017-11-06T03:39:42.279Z,1012.15
2017-11-06T03:40:08.401Z,1012.11
2017-11-06T03:40:34.521Z,1012.12
2017-11-06T03:41:00.640Z,1012.16
2017-11-06T03:41:26.782Z,1012.12
2017-11-06T03:41:52.898Z,1012.12
2017-11-06T03:42:19.046Z,1012.18
2017-11-06T03:42:45.168Z,1012.18
2017-11-06T03:43:11.281Z,1012.19
2017-11-06T03:43:37.421Z,1012.16
2017-11-06T03:44:03.526Z,1012.16
2017-11-06T03:44:29.648Z,1012.19
2017-11-06T03:44:55.762Z,1012.16
2017-11-06T03:45:21.888Z,1012.18
2017-11-06T03:45:48.003Z,1012.23
2017-11-06T03:46:14.124Z,1012.21
2017-11-06T03:46:40.249Z,1012.19
2017-11-06T03:47:06.364Z,1012.23
2017-11-06T03:47:32.490Z,1012.19
2017-11-06T03:47:58.605Z,1012.21
2017-11-06T03:48:24.730Z,1012.23
2017-11-06T03:48:50.853Z,1012.23
2017-11-06T03:49:16.973Z,1012.27
2017-11-06T03:49:43.093Z,1012.29
2017-11-06T03:50:09.213Z,1012.33
2017-11-06T03:50:35.339Z,1012.32
2017-11-06T03:51:01.456Z,1012.32
2017-11-06T03:51:27.573Z,1012.34
2017-11-06T03:51:53.697Z,1012.34
2017-11-06T03:52:19.805Z,1012.32
2017-11-06T03:52:45.930Z,1012.35
2017-11-06T03:53:12.043Z,1012.33
2017-11-06T03:53:38.163Z,1012.34
2017-11-06T03:54:04.290Z,1012.32
2017-11-06T03:54:30.428Z,1012.32
2017-11-06T03:54:56.555Z,1012.33
2017-11-06T03:55:22.666Z,1012.34
2017-11-06T03:55:48.789Z,1012.32
2017-11-06T03:56:14.906Z,1012.34
2017-11-06T03:56:41.024Z,1012.34
2017-11-06T03:57:07.152Z,1012.38
2017-11-06T03:57:33.274Z,1012.39
2017-11-06T03:57:59.398Z,1012.42
2017-11-06T03:58:25.528Z,1012.39
2017-11-06T03:58:51.643Z,1012.39
2017-11-06T03:59:17.768Z,1012.45
2017-11-06T03:59:43.883Z,1012.46
2017-11-06T04:00:10.001Z,1012.45
2017-11-06T04:00:36.127Z,1012.5
2017-11-06T04:01:02.243Z,1012.45
2017-11-06T04:01:28.366Z,1012.48
2017-11-06T04:01:54.487Z,1012.46
2017-11-06T04:02:20.602Z,1012.49
2017-11-06T04:02:46.726Z,1012.5
2017-11-06T04:03:12.844Z,1012.5
2017-11-06T04:03:38.968Z,1012.49
2017-11-06T04:04:05.082Z,1012.51
2017-11-06T04:04:31.206Z,1012.49
2017-11-06T04:04:57.321Z,1012.5
2017-11-06T04:05:23.445Z,1012.5
2017-11-06T04:05:49.566Z,1012.52
2017-11-06T04:06:15.699Z,1012.51
2017-11-06T04:06:41.824Z,1012.5
2017-11-06T04:07:07.948Z,1012.51
2017-11-06T04:07:34.063Z,1012.57
2017-11-06T04:08:00.187Z,1012.55
2017-11-06T04:08:26.306Z,1012.52
2017-11-06T04:08:52.420Z,1012.56
2017-11-06T04:09:18.543Z,1012.58
2017-11-06T04:09:44.668Z,1012.59
2017-11-06T04:10:10.784Z,1012.58
2017-11-06T04:10:36.901Z,1012.6
2017-11-06T04:11:03.022Z,1012.61
2017-11-06T04:11:29.141Z,1012.65
2017-11-06T04:11:55.282Z,1012.64
2017-11-06T04:12:21.405Z,1012.69
2017-11-06T04:12:47.516Z,1012.66
2017-11-06T04:13:13.660Z,1012.67
2017-11-06T04:13:39.776Z,1012.68
2017-11-06T04:14:05.896Z,1012.68
2017-11-06T04:14:32.020Z,1012.69
2017-11-06T04:14:58.143Z,1012.71
2017-11-06T04:15:24.260Z,1012.69
2017-11-06T04:15:50.385Z,1012.74
2017-11-06T04:16:16.499Z,1012.68
2017-11-06T04:16:42.618Z,1012.74
2017-11-06T04:17:08.747Z,1012.71
2017-11-06T04:17:34.869Z,1012.66
2017-11-06T04:18:00.985Z,1012.71
2017-11-06T04:18:27.101Z,1012.71
2017-11-06T04:18:53.225Z,1012.72
2017-11-06T04:19:19.363Z,1012.77
2017-11-06T04:19:45.485Z,1012.77
2017-11-06T04:20:11.639Z,1012.76
2017-11-06T04:20:37.732Z,1012.79
2017-11-06T04:21:03.872Z,1012.79
2017-11-06T04:21:29.983Z,1012.78
2017-11-06T04:21:56.108Z,1012.79
2017-11-06T04:22:22.225Z,1012.79
2017-11-06T04:22:48.343Z,1012.82
2017-11-06T04:23:14.457Z,1012.8
2017-11-06T04:23:40.582Z,1012.83
2017-11-06T04:24:06.708Z,1012.8
2017-11-06T04:24:32.822Z,1012.81
2017-11-06T04:24:58.939Z,1012.81
2017-11-06T04:25:25.053Z,1012.82
2017-11-06T04:25:51.179Z,1012.83
2017-11-06T04:26:17.303Z,1012.82
2017-11-06T04:26:43.421Z,1012.83
2017-11-06T04:27:09.545Z,1012.83
2017-11-06T04:27:35.664Z,1012.81
2017-11-06T04:28:01.777Z,1012.83
2017-11-06T04:28:27.893Z,1012.85
2017-11-06T04:28:54.015Z,1012.79
2017-11-06T04:29:20.137Z,1012.83
2017-11-06T04:29:46.256Z,1012.84
2017-11-06T04:30:12.372Z,1012.82
2017-11-06T04:30:38.486Z,1012.81
2017-11-06T04:31:04.611Z,1012.85
2017-11-06T04:31:30.734Z,1012.86
2017-11-06T04:31:56.847Z,1012.9
2017-11-06T04:32:22.965Z,1012.89
2017-11-06T04:32:49.088Z,1012.92
2017-11-06T04:33:15.203Z,1012.87
2017-11-06T04:33:41.328Z,1012.88
2017-11-06T04:34:07.451Z,1012.9
2017-11-06T04:34:33.564Z,1012.93
2017-11-06T04:34:59.688Z,1012.94
2017-11-06T04:35:25.806Z,1012.92
2017-11-06T04:35:51.921Z,1012.9
2017-11-06T04:36:18.049Z,1012.9
2017-11-06T04:36:44.169Z,1012.89
2017-11-06T04:37:10.288Z,1012.89
2017-11-06T04:37:36.401Z,1012.91
2017-11-06T04:38:02.533Z,1012.9
2017-11-06T04:38:28.646Z,1012.88
2017-11-06T04:38:54.780Z,1012.88
2017-11-06T04:39:20.905Z,1012.88
2017-11-06T04:39:47.053Z,1012.85
2017-11-06T04:40:13.171Z,1012.88
2017-11-06T04:40:39.287Z,1012.89
2017-11-06T04:41:05.413Z,1012.9
2017-11-06T04:41:31.531Z,1012.94
2017-11-06T04:41:57.656Z,1012.92
2017-11-06T04:42:23.769Z,1012.96
2017-11-06T04:42:49.885Z,1013
2017-11-06T04:43:16.038Z,1012.98
2017-11-06T04:43:42.131Z,1012.97
2017-11-06T04:44:08.239Z,1013.01
2017-11-06T04:44:34.379Z,1013
2017-11-06T04:45:00.507Z,1013.02
2017-11-06T04:45:26.634Z,1013.01
2017-11-06T04:45:52.750Z,1013.07
2017-11-06T04:46:18.873Z,1013.04
2017-11-06T04:46:44.991Z,1013.05
2017-11-06T04:47:11.105Z,1013.04
2017-11-06T04:47:37.229Z,1013.04
2017-11-06T04:48:03.346Z,1013.05
2017-11-06T04:48:29.462Z,1013.08
2017-11-06T04:48:55.577Z,1013.08
2017-11-06T04:49:21.701Z,1013.07
2017-11-06T04:49:47.821Z,1013.06
2017-11-06T04:50:13.947Z,1013.09
2017-11-06T04:50:40.061Z,1013.09
2017-11-06T04:51:06.183Z,1013.08
2017-11-06T04:51:32.306Z,1013.1
2017-11-06T04:51:58.443Z,1013.11
2017-11-06T04:52:24.561Z,1013.14
2017-11-06T04:52:50.680Z,1013.16
2017-11-06T04:53:16.803Z,1013.16
2017-11-06T04:53:42.937Z,1013.12
2017-11-06T04:54:09.042Z,1013.15
2017-11-06T04:54:35.158Z,1013.12
2017-11-06T04:55:01.300Z,1013.11
2017-11-06T04:55:27.423Z,1013.12
2017-11-06T04:55:53.537Z,1013.14
2017-11-06T04:56:19.661Z,1013.11
2017-11-06T04:56:45.776Z,1013.11
2017-11-06T04:57:11.903Z,1013.14
2017-11-06T04:57:38.025Z,1013.13
2017-11-06T04:58:04.145Z,1013.14
2017-11-06T04:58:30.265Z,1013.12
2017-11-06T04:58:56.379Z,1013.17
2017-11-06T04:59:22.505Z,1013.15
2017-11-06T04:59:48.622Z,1013.17
2017-11-06T05:00:14.749Z,1013.18
2017-11-06T05:00:40.867Z,1013.18
2017-11-06T05:01:06.987Z,1013.18
2017-11-06T05:01:33.099Z,1013.2
2017-11-06T05:01:59.218Z,1013.23
2017-11-06T05:02:25.346Z,1013.25
2017-11-06T05:02:51.469Z,1013.24
2017-11-06T05:03:17.589Z,1013.25
2017-11-06T05:03:43.699Z,1013.25
2017-11-06T05:04:09.823Z,1013.26
2017-11-06T05:04:35.943Z,1013.25
2017-11-06T05:05:02.060Z,1013.26
2017-11-06T05:05:28.189Z,1013.28
2017-11-06T05:05:54.304Z,1013.29
2017-11-06T05:06:20.417Z,1013.29
2017-11-06T05:06:46.543Z,1013.27
2017-11-06T05:07:12.664Z,1013.29
2017-11-06T05:07:38.780Z,1013.28
2017-11-06T05:08:04.898Z,1013.33
2017-11-06T05:08:31.018Z,1013.34
2017-11-06T05:08:57.132Z,1013.33
2017-11-06T05:09:23.256Z,1013.38
2017-11-06T05:09:49.383Z,1013.4
2017-11-06T05:10:15.502Z,1013.43
2017-11-06T05:10:41.628Z,1013.41
2017-11-06T05:11:07.759Z,1013.41
2017-11-06T05:11:33.919Z,1013.44
2017-11-06T05:12:00.040Z,1013.44
2017-11-06T05:12:26.158Z,1013.42
2017-11-06T05:12:52.279Z,1013.43
2017-11-06T05:13:18.395Z,1013.41
2017-11-06T05:13:44.513Z,1013.44
2017-11-06T05:14:10.637Z,1013.43
2017-11-06T05:14:36.758Z,1013.43
2017-11-06T05:15:02.875Z,1013.44
2017-11-06T05:15:28.995Z,1013.46
2017-11-06T05:15:55.108Z,1013.47
2017-11-06T05:16:21.234Z,1013.5
2017-11-06T05:16:47.353Z,1013.46
2017-11-06T05:17:13.490Z,1013.49